GEML

Melilla Airport

Melilla, Spain
METAR GEML 192000Z AUTO 12009KT 080V140 9999 OVC012/// 22/19 Q1018
Observed Flight Rules
Jun-19 @ 20:00 UTC (18 minutes ago) Marginal Visual Flight Rules
Wind Visibility Clouds
120° at 9 knots 10,000+ meters
  • Overcast at 1,200' AGL
Temperatures Readings
Current 22°C / 72°F
Dewpoint 19°C / 66°F
Humidity 83%
Altimeter 30.06" Hg
Pressure 1018 hPa
Elevation 55
METAR GEML 192000Z AUTO 12009KT 080V140 9999 OVC012/// 22/19 Q1018
Observed Flight Rules
Jun-19 @ 20:00 UTC
(18 minutes ago)
MVFR
Wind Visibility
120° at 9 knots 10,000+ meters
Clouds
  • Overcast at 1,200' AGL
Temperature Dewpoint
22°C / 72°F 19°C / 66°F
Humidity Altimeter Pressure
83% 30.06" Hg 1018 hPa